Carrier Princess — CZ3582 — position and weather

sailwx.info

Track history (hours):
 
Tides and Currents Weather Stations Pressure Air Temp Water Temp Dewpoint Dewpoint Depression Visibility Wind Speed Wind Dir Waves Ship Positions

Carrier Princess

Last reported at 2014-Aug-29 15:33 UTC. Time now 2014-Aug-29 16:22 UTC.
Position N 48°41' W 123°24'.

Length 112 m; draft 3 m.

Type: Cargo ship. MMSI: 316003656.

Date/timePositionNaut miles runAvg speedWind from/ knotsBaromVisibWave heightAir tempDewpointWater temp
2014-Aug-29 15:33N 48°41' W 123°24'0 0.0
2014-Aug-29 14:33N 48°41' W 123°24'0 0.0
2014-Aug-29 13:33N 48°41' W 123°24'0 0.0
2014-Aug-29 12:33N 48°41' W 123°24'3 3.3
2014-Aug-29 11:33N 48°44' W 123°21'1110.8
2014-Aug-29 10:33N 48°54' W 123°18'1212.1
2014-Aug-29 09:34N 49°06' W 123°18'1110.5
2014-Aug-29 08:33N 49°09' W 123°02'0 0.0
2014-Aug-29 07:33N 49°09' W 123°02'7 7.0
2014-Aug-29 06:33N 49°08' W 123°13'1111.1
2014-Aug-29 05:33N 49°08' W 123°30'1212.3
2014-Aug-29 04:33N 49°13' W 123°47'6 6.3
2014-Aug-29 03:33N 49°10' W 123°56'0 0.0
2014-Aug-29 02:33N 49°10' W 123°56'10 9.9
2014-Aug-29 01:33N 49°12' W 123°41'1413.7
2014-Aug-29 00:33N 49°07' W 123°21'1212.5
2014-Aug-28 23:34N 49°09' W 123°03'0 0.2
2014-Aug-28 22:33N 49°09' W 123°02'5 4.7
2014-Aug-28 21:33N 49°06' W 123°08'9 8.6
2014-Aug-28 20:33N 49°01' W 123°19'1211.3
2014-Aug-28 19:32N 48°50' W 123°21'9 9.2
2014-Aug-28 18:33N 48°41' W 123°24'0 0.0
2014-Aug-28 17:33N 48°41' W 123°24'0 0.0
2014-Aug-28 16:33N 48°41' W 123°24'0 0.0
2014-Aug-28 15:33N 48°41' W 123°24'0 0.0
2014-Aug-28 14:33N 48°41' W 123°24'0 0.0
2014-Aug-28 13:33N 48°41' W 123°24'0 0.0
2014-Aug-28 12:33N 48°41' W 123°24'3 2.9
2014-Aug-28 11:33N 48°43' W 123°21'1110.8
2014-Aug-28 10:34N 48°54' W 123°18'1312.8
2014-Aug-28 09:33N 49°06' W 123°18'1010.4
2014-Aug-28 08:33N 49°09' W 123°02'0 0.0
2014-Aug-28 07:34N 49°09' W 123°02'8 8.1
2014-Aug-28 06:34N 49°08' W 123°14'1312.6
2014-Aug-28 05:34N 49°09' W 123°34'1313.2
2014-Aug-28 04:33N 49°11' W 123°53'2 2.1
2014-Aug-28 03:34N 49°10' W 123°56'6 5.6
2014-Aug-28 02:33N 49°13' W 123°49'1717.0
2014-Aug-28 01:33N 49°08' W 123°24'10 9.6
2014-Aug-28 00:33N 49°07' W 123°10'5 5.4
2014-Aug-27 23:34N 49°09' W 123°02'0 0.0
2014-Aug-27 22:33N 49°09' W 123°02'4 3.8
2014-Aug-27 21:34N 49°07' W 123°07'8 8.3
2014-Aug-27 20:33N 49°05' W 123°19'1413.5
2014-Aug-27 19:33N 48°52' W 123°20'1110.6
2014-Aug-27 18:33N 48°41' W 123°24'0 0.0
2014-Aug-27 17:33N 48°41' W 123°24'0 0.0
2014-Aug-27 16:33N 48°41' W 123°24'0 0.0
2014-Aug-27 15:33N 48°41' W 123°24'0 0.0
2014-Aug-27 14:33N 48°41' W 123°24'0 0.0
2014-Aug-27 13:33N 48°41' W 123°24'0 0.0
2014-Aug-27 12:33N 48°41' W 123°24'3 3.5
2014-Aug-27 11:33N 48°44' W 123°21'1211.6
2014-Aug-27 10:33N 48°55' W 123°18'1211.9
2014-Aug-27 09:33N 49°07' W 123°16'9 9.2
2014-Aug-27 08:34N 49°09' W 123°02'0 0.0
2014-Aug-27 07:34N 49°09' W 123°02'7 7.1
2014-Aug-27 06:33N 49°08' W 123°13'1211.8
2014-Aug-27 05:34N 49°08' W 123°31'1313.2
2014-Aug-27 04:33N 49°13' W 123°50'5 4.7
2014-Aug-27 03:33N 49°10' W 123°56'0 0.2
2014-Aug-27 02:34N 49°10' W 123°56'1110.8
2014-Aug-27 01:33N 49°12' W 123°39'1313.3
2014-Aug-27 00:33N 49°06' W 123°21'1212.1
2014-Aug-26 23:34N 49°09' W 123°03'0 0.2
2014-Aug-26 22:33N 49°09' W 123°02'4 4.0
2014-Aug-26 21:33N 49°07' W 123°07'9 8.8
2014-Aug-26 20:33N 49°02' W 123°19'1211.9
2014-Aug-26 19:32N 48°50' W 123°21'9 9.1
2014-Aug-26 18:33N 48°41' W 123°24'0 0.0
2014-Aug-26 17:32N 48°41' W 123°24'0 0.0
2014-Aug-26 16:33N 48°41' W 123°24'0 0.0
2014-Aug-26 15:33N 48°41' W 123°24'0 0.0
2014-Aug-26 14:34N 48°41' W 123°24'0 0.0
2014-Aug-26 13:33N 48°41' W 123°24'0 0.0
2014-Aug-26 12:33N 48°41' W 123°24'7 7.1
2014-Aug-26 11:33N 48°48' W 123°21'1515.1
2014-Aug-26 10:33N 49°03' W 123°21'8 7.7
2014-Aug-26 09:34N 49°07' W 123°11'6 5.8
2014-Aug-26 08:33N 49°09' W 123°02'0 0.0
2014-Aug-26 07:33N 49°09' W 123°02'6 6.1
2014-Aug-26 06:33N 49°07' W 123°11'1010.4
2014-Aug-26 05:34N 49°08' W 123°27'1515.4
2014-Aug-26 04:33N 49°13' W 123°49'5 5.2
2014-Aug-26 03:33N 49°10' W 123°56'1 1.3
2014-Aug-26 02:33N 49°11' W 123°54'1313.3
2014-Aug-26 01:34N 49°11' W 123°34'1313.2
2014-Aug-26 00:33N 49°08' W 123°14'8 7.7
2014-Aug-25 23:33N 49°09' W 123°03'0 0.2
2014-Aug-25 22:33N 49°09' W 123°02'0 0.0
2014-Aug-25 21:33N 49°09' W 123°02'0 0.1
2014-Aug-25 20:33N 49°09' W 123°02'0 0.0
2014-Aug-25 19:33N 49°09' W 123°02'0 0.0
2014-Aug-25 18:33N 49°09' W 123°02'0 0.0
2014-Aug-25 17:33N 49°09' W 123°02'0 0.0
2014-Aug-25 16:33N 49°09' W 123°02'0 0.0
2014-Aug-25 15:33N 49°09' W 123°02'0 0.0
2014-Aug-25 14:33N 49°09' W 123°02'0 0.0
2014-Aug-25 13:33N 49°09' W 123°02'0 0.0
2014-Aug-25 12:33N 49°09' W 123°02'0 0.0
2014-Aug-25 11:33N 49°09' W 123°02'0 0.0
2014-Aug-25 10:33N 49°09' W 123°02'0 0.0
2014-Aug-25 09:33N 49°09' W 123°02'0 0.0
2014-Aug-25 08:33N 49°09' W 123°02'0 0.0
2014-Aug-25 07:33N 49°09' W 123°02'0 0.0
2014-Aug-25 06:33N 49°09' W 123°02'0 0.0
2014-Aug-25 05:33N 49°09' W 123°02'0 0.0
2014-Aug-25 04:33N 49°09' W 123°02'0 0.0
2014-Aug-25 03:33N 49°09' W 123°02'0 0.0
2014-Aug-25 02:33N 49°09' W 123°02'0 0.0
2014-Aug-25 01:33N 49°09' W 123°02'0 0.0
2014-Aug-25 00:33N 49°09' W 123°02'0 0.0
2014-Aug-24 23:33N 49°09' W 123°02'0 0.0
2014-Aug-24 22:33N 49°09' W 123°02'0 0.0
2014-Aug-24 21:33N 49°09' W 123°02'0 0.0
2014-Aug-24 20:33N 49°09' W 123°02'0 0.0
2014-Aug-24 19:33N 49°09' W 123°02'0 0.0
2014-Aug-24 18:33N 49°09' W 123°02'0 0.0
2014-Aug-24 17:33N 49°09' W 123°02'0 0.0
2014-Aug-24 16:33N 49°09' W 123°02'0 0.0
2014-Aug-24 15:33N 49°09' W 123°02'2 1.7
2014-Aug-24 14:33N 49°08' W 123°04'9 9.4
2014-Aug-24 13:33N 49°06' W 123°18'1110.5
2014-Aug-24 12:33N 49°09' W 123°34'1110.8
2014-Aug-24 11:33N 49°13' W 123°49'5 5.2
2014-Aug-24 10:33N 49°10' W 123°56'0 0.0
2014-Aug-24 09:33N 49°10' W 123°56'1 1.4
2014-Aug-24 08:33N 49°11' W 123°54'9 9.1
2014-Aug-24 07:33N 49°12' W 123°40'10 9.9
2014-Aug-24 06:33N 49°08' W 123°26'1010.4
2014-Aug-24 05:33N 49°07' W 123°10'6 5.7
2014-Aug-24 04:33N 49°09' W 123°02'0 0.0
2014-Aug-24 03:33N 49°09' W 123°02'0 0.0
2014-Aug-24 02:34N 49°09' W 123°02'0 0.0
2014-Aug-24 01:34N 49°09' W 123°02'0 0.0
2014-Aug-24 00:33N 49°09' W 123°02'0 0.0
2014-Aug-23 23:33N 49°09' W 123°02'0 0.0
2014-Aug-23 22:33N 49°09' W 123°02'3 3.1
2014-Aug-23 21:34N 49°07' W 123°06'1212.3
2014-Aug-23 20:33N 49°07' W 123°25'1413.6
2014-Aug-23 19:34N 49°12' W 123°44'8 0.5
2014-Aug-23 03:34N 49°10' W 123°56'0 0.1
2014-Aug-23 02:33N 49°10' W 123°56'1111.2
2014-Aug-23 01:33N 49°12' W 123°39'1413.6
2014-Aug-23 00:34N 49°06' W 123°20'1211.9
2014-Aug-22 23:34N 49°09' W 123°02'0 0.2
2014-Aug-22 22:34N 49°09' W 123°02'2 2.2
2014-Aug-22 21:34N 49°07' W 123°05'1010.4
2014-Aug-22 20:33N 49°03' W 123°19'1212.4
2014-Aug-22 19:33N 48°51' W 123°21'10 4.9
2014-Aug-22 17:33N 48°41' W 123°24'0 0.0
2014-Aug-22 16:33N 48°41' W 123°24'0 0.0
2014-Aug-22 15:33N 48°41' W 123°24'0 0.0
2014-Aug-22 14:33N 48°41' W 123°24'0 0.0
2014-Aug-22 13:33N 48°41' W 123°24'0 0.0
2014-Aug-22 12:33N 48°41' W 123°24'2 2.2
2014-Aug-22 11:33N 48°42' W 123°22'1212.0
2014-Aug-22 10:33N 48°54' W 123°18'1212.3
2014-Aug-22 09:33N 49°06' W 123°18'1110.5
2014-Aug-22 08:34N 49°09' W 123°02'0 0.0
2014-Aug-22 07:33N 49°09' W 123°02'8 7.7
2014-Aug-22 06:34N 49°08' W 123°14'1010.3
2014-Aug-22 05:33N 49°08' W 123°30'1413.5
2014-Aug-22 04:33N 49°13' W 123°49'5 5.4
2014-Aug-22 03:33N 49°10' W 123°56'0 0.0
2014-Aug-22 02:33N 49°10' W 123°56'1010.2
2014-Aug-22 01:33N 49°12' W 123°40'1313.4
2014-Aug-22 00:34N 49°07' W 123°21'1212.3
2014-Aug-21 23:34N 49°09' W 123°03'0 0.3
2014-Aug-21 22:33N 49°09' W 123°02'5 4.5
2014-Aug-21 21:34N 49°06' W 123°08'7 7.4
2014-Aug-21 20:34N 49°03' W 123°18'1211.9
2014-Aug-21 19:33N 48°51' W 123°21'1010.0
2014-Aug-21 18:33N 48°41' W 123°24'0 0.0
2014-Aug-21 17:32N 48°41' W 123°24'0 0.0
2014-Aug-21 16:33N 48°41' W 123°24'0 0.0
2014-Aug-21 15:34N 48°41' W 123°24'0 0.0
2014-Aug-21 14:34N 48°41' W 123°24'0 0.0
2014-Aug-21 13:33N 48°41' W 123°24'0 0.0
2014-Aug-21 12:33N 48°41' W 123°24'3 2.7
2014-Aug-21 11:33N 48°43' W 123°21'1212.3
2014-Aug-21 10:33N 48°55' W 123°18'1313.4
2014-Aug-21 09:33N 49°06' W 123°08'4 4.4
2014-Aug-21 08:33N 49°09' W 123°02'0 0.0
2014-Aug-21 07:34N 49°09' W 123°02'7 6.8
2014-Aug-21 06:33N 49°08' W 123°12'1111.5
2014-Aug-21 05:34N 49°08' W 123°30'1313.4
2014-Aug-21 04:33N 49°13' W 123°49'5 5.2
2014-Aug-21 03:33N 49°10' W 123°56'1 0.7
2014-Aug-21 02:34N 49°10' W 123°55'1211.6
2014-Aug-21 01:33N 49°11' W 123°37'1313.1
2014-Aug-21 00:33N 49°06' W 123°18'1111.0
2014-Aug-20 23:33N 49°09' W 123°02'0 0.0
2014-Aug-20 22:33N 49°09' W 123°02'5 5.0
2014-Aug-20 21:33N 49°06' W 123°09'7 7.2
2014-Aug-20 20:33N 49°02' W 123°18'1111.2
2014-Aug-20 19:34N 48°51' W 123°21'1010.3
2014-Aug-20 18:33N 48°41' W 123°24'0 0.0
2014-Aug-20 17:33N 48°41' W 123°24'0 0.0
2014-Aug-20 16:33N 48°41' W 123°24'0 0.0
2014-Aug-20 15:33N 48°41' W 123°24'0 0.0
2014-Aug-20 14:33N 48°41' W 123°24'0 0.0
2014-Aug-20 13:33N 48°41' W 123°24'0 0.0
2014-Aug-20 12:33N 48°41' W 123°24'2 1.9
2014-Aug-20 11:33N 48°42' W 123°22'1313.0
2014-Aug-20 10:33N 48°55' W 123°18'1211.9
2014-Aug-20 09:33N 49°07' W 123°17'10 9.9
2014-Aug-20 08:33N 49°09' W 123°02'0 0.0
2014-Aug-20 07:33N 49°09' W 123°02'7 6.8
2014-Aug-20 06:33N 49°08' W 123°12'1212.3
2014-Aug-20 05:34N 49°09' W 123°31'1413.7
2014-Aug-20 04:33N 49°12' W 123°51'4 3.8
2014-Aug-20 03:33N 49°10' W 123°56'2 1.6
2014-Aug-20 02:32N 49°11' W 123°54'1515.1
2014-Aug-20 01:33N 49°09' W 123°31'1111.5
2014-Aug-20 00:33N 49°08' W 123°14'7 7.4
2014-Aug-19 23:33N 49°09' W 123°03'0 0.3
2014-Aug-19 22:33N 49°09' W 123°02'4 4.0
2014-Aug-19 21:33N 49°06' W 123°07'8 8.3
2014-Aug-19 20:34N 49°03' W 123°19'1211.9
2014-Aug-19 19:33N 48°51' W 123°21'1010.1
2014-Aug-19 18:34N 48°41' W 123°24'0 0.0
2014-Aug-19 17:33N 48°41' W 123°24'0 0.0
2014-Aug-19 16:33N 48°41' W 123°24'0 0.0
2014-Aug-19 15:34N 48°41' W 123°24'  
Track history (hours):
 
Tides and Currents Weather Stations Pressure Air Temp Water Temp Dewpoint Dewpoint Depression Visibility Wind Speed Wind Dir Waves Ship Positions

Carrier Princess

Last reported at 2014-Aug-29 15:33 UTC. Time now 2014-Aug-29 16:22 UTC.
Position N 48°41' W 123°24'.

Length 112 m; draft 3 m.

Type: Cargo ship. MMSI: 316003656.

Date/timePositionNaut miles runAvg speedWind from/ knotsBaromVisibWave heightAir tempDewpointWater temp
2014-Aug-29 15:33N 48°41' W 123°24'0 0.0
2014-Aug-29 14:33N 48°41' W 123°24'0 0.0
2014-Aug-29 13:33N 48°41' W 123°24'0 0.0
2014-Aug-29 12:33N 48°41' W 123°24'3 3.3
2014-Aug-29 11:33N 48°44' W 123°21'1110.8
2014-Aug-29 10:33N 48°54' W 123°18'1212.1
2014-Aug-29 09:34N 49°06' W 123°18'1110.5
2014-Aug-29 08:33N 49°09' W 123°02'0 0.0
2014-Aug-29 07:33N 49°09' W 123°02'7 7.0
2014-Aug-29 06:33N 49°08' W 123°13'1111.1
2014-Aug-29 05:33N 49°08' W 123°30'1212.3
2014-Aug-29 04:33N 49°13' W 123°47'6 6.3
2014-Aug-29 03:33N 49°10' W 123°56'0 0.0
2014-Aug-29 02:33N 49°10' W 123°56'10 9.9
2014-Aug-29 01:33N 49°12' W 123°41'1413.7
2014-Aug-29 00:33N 49°07' W 123°21'1212.5
2014-Aug-28 23:34N 49°09' W 123°03'0 0.2
2014-Aug-28 22:33N 49°09' W 123°02'5 4.7
2014-Aug-28 21:33N 49°06' W 123°08'9 8.6
2014-Aug-28 20:33N 49°01' W 123°19'1211.3
2014-Aug-28 19:32N 48°50' W 123°21'9 9.2
2014-Aug-28 18:33N 48°41' W 123°24'0 0.0
2014-Aug-28 17:33N 48°41' W 123°24'0 0.0
2014-Aug-28 16:33N 48°41' W 123°24'0 0.0
2014-Aug-28 15:33N 48°41' W 123°24'0 0.0
2014-Aug-28 14:33N 48°41' W 123°24'0 0.0
2014-Aug-28 13:33N 48°41' W 123°24'0 0.0
2014-Aug-28 12:33N 48°41' W 123°24'3 2.9
2014-Aug-28 11:33N 48°43' W 123°21'1110.8
2014-Aug-28 10:34N 48°54' W 123°18'1312.8
2014-Aug-28 09:33N 49°06' W 123°18'1010.4
2014-Aug-28 08:33N 49°09' W 123°02'0 0.0
2014-Aug-28 07:34N 49°09' W 123°02'8 8.1
2014-Aug-28 06:34N 49°08' W 123°14'1312.6
2014-Aug-28 05:34N 49°09' W 123°34'1313.2
2014-Aug-28 04:33N 49°11' W 123°53'2 2.1
2014-Aug-28 03:34N 49°10' W 123°56'6 5.6
2014-Aug-28 02:33N 49°13' W 123°49'1717.0
2014-Aug-28 01:33N 49°08' W 123°24'10 9.6
2014-Aug-28 00:33N 49°07' W 123°10'5 5.4
2014-Aug-27 23:34N 49°09' W 123°02'0 0.0
2014-Aug-27 22:33N 49°09' W 123°02'4 3.8
2014-Aug-27 21:34N 49°07' W 123°07'8 8.3
2014-Aug-27 20:33N 49°05' W 123°19'1413.5
2014-Aug-27 19:33N 48°52' W 123°20'1110.6
2014-Aug-27 18:33N 48°41' W 123°24'0 0.0
2014-Aug-27 17:33N 48°41' W 123°24'0 0.0
2014-Aug-27 16:33N 48°41' W 123°24'0 0.0
2014-Aug-27 15:33N 48°41' W 123°24'0 0.0
2014-Aug-27 14:33N 48°41' W 123°24'0 0.0
2014-Aug-27 13:33N 48°41' W 123°24'0 0.0
2014-Aug-27 12:33N 48°41' W 123°24'3 3.5
2014-Aug-27 11:33N 48°44' W 123°21'1211.6
2014-Aug-27 10:33N 48°55' W 123°18'1211.9
2014-Aug-27 09:33N 49°07' W 123°16'9 9.2
2014-Aug-27 08:34N 49°09' W 123°02'0 0.0
2014-Aug-27 07:34N 49°09' W 123°02'7 7.1
2014-Aug-27 06:33N 49°08' W 123°13'1211.8
2014-Aug-27 05:34N 49°08' W 123°31'1313.2
2014-Aug-27 04:33N 49°13' W 123°50'5 4.7
2014-Aug-27 03:33N 49°10' W 123°56'0 0.2
2014-Aug-27 02:34N 49°10' W 123°56'1110.8
2014-Aug-27 01:33N 49°12' W 123°39'1313.3
2014-Aug-27 00:33N 49°06' W 123°21'1212.1
2014-Aug-26 23:34N 49°09' W 123°03'0 0.2
2014-Aug-26 22:33N 49°09' W 123°02'4 4.0
2014-Aug-26 21:33N 49°07' W 123°07'9 8.8
2014-Aug-26 20:33N 49°02' W 123°19'1211.9
2014-Aug-26 19:32N 48°50' W 123°21'9 9.1
2014-Aug-26 18:33N 48°41' W 123°24'0 0.0
2014-Aug-26 17:32N 48°41' W 123°24'0 0.0
2014-Aug-26 16:33N 48°41' W 123°24'0 0.0
2014-Aug-26 15:33N 48°41' W 123°24'0 0.0
2014-Aug-26 14:34N 48°41' W 123°24'0 0.0
2014-Aug-26 13:33N 48°41' W 123°24'0 0.0
2014-Aug-26 12:33N 48°41' W 123°24'7 7.1
2014-Aug-26 11:33N 48°48' W 123°21'1515.1
2014-Aug-26 10:33N 49°03' W 123°21'8 7.7
2014-Aug-26 09:34N 49°07' W 123°11'6 5.8
2014-Aug-26 08:33N 49°09' W 123°02'0 0.0
2014-Aug-26 07:33N 49°09' W 123°02'6 6.1
2014-Aug-26 06:33N 49°07' W 123°11'1010.4
2014-Aug-26 05:34N 49°08' W 123°27'1515.4
2014-Aug-26 04:33N 49°13' W 123°49'5 5.2
2014-Aug-26 03:33N 49°10' W 123°56'1 1.3
2014-Aug-26 02:33N 49°11' W 123°54'1313.3
2014-Aug-26 01:34N 49°11' W 123°34'1313.2
2014-Aug-26 00:33N 49°08' W 123°14'8 7.7
2014-Aug-25 23:33N 49°09' W 123°03'0 0.2
2014-Aug-25 22:33N 49°09' W 123°02'0 0.0
2014-Aug-25 21:33N 49°09' W 123°02'0 0.1
2014-Aug-25 20:33N 49°09' W 123°02'0 0.0
2014-Aug-25 19:33N 49°09' W 123°02'0 0.0
2014-Aug-25 18:33N 49°09' W 123°02'0 0.0
2014-Aug-25 17:33N 49°09' W 123°02'0 0.0
2014-Aug-25 16:33N 49°09' W 123°02'0 0.0
2014-Aug-25 15:33N 49°09' W 123°02'0 0.0
2014-Aug-25 14:33N 49°09' W 123°02'0 0.0
2014-Aug-25 13:33N 49°09' W 123°02'0 0.0
2014-Aug-25 12:33N 49°09' W 123°02'0 0.0
2014-Aug-25 11:33N 49°09' W 123°02'0 0.0
2014-Aug-25 10:33N 49°09' W 123°02'0 0.0
2014-Aug-25 09:33N 49°09' W 123°02'0 0.0
2014-Aug-25 08:33N 49°09' W 123°02'0 0.0
2014-Aug-25 07:33N 49°09' W 123°02'0 0.0
2014-Aug-25 06:33N 49°09' W 123°02'0 0.0
2014-Aug-25 05:33N 49°09' W 123°02'0 0.0
2014-Aug-25 04:33N 49°09' W 123°02'0 0.0
2014-Aug-25 03:33N 49°09' W 123°02'0 0.0
2014-Aug-25 02:33N 49°09' W 123°02'0 0.0
2014-Aug-25 01:33N 49°09' W 123°02'0 0.0
2014-Aug-25 00:33N 49°09' W 123°02'0 0.0
2014-Aug-24 23:33N 49°09' W 123°02'0 0.0
2014-Aug-24 22:33N 49°09' W 123°02'0 0.0
2014-Aug-24 21:33N 49°09' W 123°02'0 0.0
2014-Aug-24 20:33N 49°09' W 123°02'0 0.0
2014-Aug-24 19:33N 49°09' W 123°02'0 0.0
2014-Aug-24 18:33N 49°09' W 123°02'0 0.0
2014-Aug-24 17:33N 49°09' W 123°02'0 0.0
2014-Aug-24 16:33N 49°09' W 123°02'0 0.0
2014-Aug-24 15:33N 49°09' W 123°02'2 1.7
2014-Aug-24 14:33N 49°08' W 123°04'9 9.4
2014-Aug-24 13:33N 49°06' W 123°18'1110.5
2014-Aug-24 12:33N 49°09' W 123°34'1110.8
2014-Aug-24 11:33N 49°13' W 123°49'5 5.2
2014-Aug-24 10:33N 49°10' W 123°56'0 0.0
2014-Aug-24 09:33N 49°10' W 123°56'1 1.4
2014-Aug-24 08:33N 49°11' W 123°54'9 9.1
2014-Aug-24 07:33N 49°12' W 123°40'10 9.9
2014-Aug-24 06:33N 49°08' W 123°26'1010.4
2014-Aug-24 05:33N 49°07' W 123°10'6 5.7
2014-Aug-24 04:33N 49°09' W 123°02'0 0.0
2014-Aug-24 03:33N 49°09' W 123°02'0 0.0
2014-Aug-24 02:34N 49°09' W 123°02'0 0.0
2014-Aug-24 01:34N 49°09' W 123°02'0 0.0
2014-Aug-24 00:33N 49°09' W 123°02'0 0.0
2014-Aug-23 23:33N 49°09' W 123°02'0 0.0
2014-Aug-23 22:33N 49°09' W 123°02'3 3.1
2014-Aug-23 21:34N 49°07' W 123°06'1212.3
2014-Aug-23 20:33N 49°07' W 123°25'1413.6
2014-Aug-23 19:34N 49°12' W 123°44'8 0.5
2014-Aug-23 03:34N 49°10' W 123°56'0 0.1
2014-Aug-23 02:33N 49°10' W 123°56'1111.2
2014-Aug-23 01:33N 49°12' W 123°39'1413.6
2014-Aug-23 00:34N 49°06' W 123°20'1211.9
2014-Aug-22 23:34N 49°09' W 123°02'0 0.2
2014-Aug-22 22:34N 49°09' W 123°02'2 2.2
2014-Aug-22 21:34N 49°07' W 123°05'1010.4
2014-Aug-22 20:33N 49°03' W 123°19'1212.4
2014-Aug-22 19:33N 48°51' W 123°21'10 4.9
2014-Aug-22 17:33N 48°41' W 123°24'0 0.0
2014-Aug-22 16:33N 48°41' W 123°24'0 0.0
2014-Aug-22 15:33N 48°41' W 123°24'0 0.0
2014-Aug-22 14:33N 48°41' W 123°24'0 0.0
2014-Aug-22 13:33N 48°41' W 123°24'0 0.0
2014-Aug-22 12:33N 48°41' W 123°24'2 2.2
2014-Aug-22 11:33N 48°42' W 123°22'1212.0
2014-Aug-22 10:33N 48°54' W 123°18'1212.3
2014-Aug-22 09:33N 49°06' W 123°18'1110.5
2014-Aug-22 08:34N 49°09' W 123°02'0 0.0
2014-Aug-22 07:33N 49°09' W 123°02'8 7.7
2014-Aug-22 06:34N 49°08' W 123°14'1010.3
2014-Aug-22 05:33N 49°08' W 123°30'1413.5
2014-Aug-22 04:33N 49°13' W 123°49'5 5.4
2014-Aug-22 03:33N 49°10' W 123°56'0 0.0
2014-Aug-22 02:33N 49°10' W 123°56'1010.2
2014-Aug-22 01:33N 49°12' W 123°40'1313.4
2014-Aug-22 00:34N 49°07' W 123°21'1212.3
2014-Aug-21 23:34N 49°09' W 123°03'0 0.3
2014-Aug-21 22:33N 49°09' W 123°02'5 4.5
2014-Aug-21 21:34N 49°06' W 123°08'7 7.4
2014-Aug-21 20:34N 49°03' W 123°18'1211.9
2014-Aug-21 19:33N 48°51' W 123°21'1010.0
2014-Aug-21 18:33N 48°41' W 123°24'0 0.0
2014-Aug-21 17:32N 48°41' W 123°24'0 0.0
2014-Aug-21 16:33N 48°41' W 123°24'0 0.0
2014-Aug-21 15:34N 48°41' W 123°24'0 0.0
2014-Aug-21 14:34N 48°41' W 123°24'0 0.0
2014-Aug-21 13:33N 48°41' W 123°24'0 0.0
2014-Aug-21 12:33N 48°41' W 123°24'3 2.7
2014-Aug-21 11:33N 48°43' W 123°21'1212.3
2014-Aug-21 10:33N 48°55' W 123°18'1313.4
2014-Aug-21 09:33N 49°06' W 123°08'4 4.4
2014-Aug-21 08:33N 49°09' W 123°02'0 0.0
2014-Aug-21 07:34N 49°09' W 123°02'7 6.8
2014-Aug-21 06:33N 49°08' W 123°12'1111.5
2014-Aug-21 05:34N 49°08' W 123°30'1313.4
2014-Aug-21 04:33N 49°13' W 123°49'5 5.2
2014-Aug-21 03:33N 49°10' W 123°56'1 0.7
2014-Aug-21 02:34N 49°10' W 123°55'1211.6
2014-Aug-21 01:33N 49°11' W 123°37'1313.1
2014-Aug-21 00:33N 49°06' W 123°18'1111.0
2014-Aug-20 23:33N 49°09' W 123°02'0 0.0
2014-Aug-20 22:33N 49°09' W 123°02'5 5.0
2014-Aug-20 21:33N 49°06' W 123°09'7 7.2
2014-Aug-20 20:33N 49°02' W 123°18'1111.2
2014-Aug-20 19:34N 48°51' W 123°21'1010.3
2014-Aug-20 18:33N 48°41' W 123°24'0 0.0
2014-Aug-20 17:33N 48°41' W 123°24'0 0.0
2014-Aug-20 16:33N 48°41' W 123°24'0 0.0
2014-Aug-20 15:33N 48°41' W 123°24'0 0.0
2014-Aug-20 14:33N 48°41' W 123°24'0 0.0
2014-Aug-20 13:33N 48°41' W 123°24'0 0.0
2014-Aug-20 12:33N 48°41' W 123°24'2 1.9
2014-Aug-20 11:33N 48°42' W 123°22'1313.0
2014-Aug-20 10:33N 48°55' W 123°18'1211.9
2014-Aug-20 09:33N 49°07' W 123°17'10 9.9
2014-Aug-20 08:33N 49°09' W 123°02'0 0.0
2014-Aug-20 07:33N 49°09' W 123°02'7 6.8
2014-Aug-20 06:33N 49°08' W 123°12'1212.3
2014-Aug-20 05:34N 49°09' W 123°31'1413.7
2014-Aug-20 04:33N 49°12' W 123°51'4 3.8
2014-Aug-20 03:33N 49°10' W 123°56'2 1.6
2014-Aug-20 02:32N 49°11' W 123°54'1515.1
2014-Aug-20 01:33N 49°09' W 123°31'1111.5
2014-Aug-20 00:33N 49°08' W 123°14'7 7.4
2014-Aug-19 23:33N 49°09' W 123°03'0 0.3
2014-Aug-19 22:33N 49°09' W 123°02'4 4.0
2014-Aug-19 21:33N 49°06' W 123°07'8 8.3
2014-Aug-19 20:34N 49°03' W 123°19'1211.9
2014-Aug-19 19:33N 48°51' W 123°21'1010.1
2014-Aug-19 18:34N 48°41' W 123°24'0 0.0
2014-Aug-19 17:33N 48°41' W 123°24'0 0.0
2014-Aug-19 16:33N 48°41' W 123°24'0 0.0
2014-Aug-19 15:34N 48°41' W 123°24'  

Dump ship's entire track history